CST,Max TemperatureF,Mean TemperatureF,Min TemperatureF,Max Dew PointF,MeanDew PointF,Min DewpointF,Max Humidity, Mean Humidity, Min Humidity, Max Sea Level PressureIn, Mean Sea Level PressureIn, Min Sea Level PressureIn, Max VisibilityMiles, Mean VisibilityMiles, Min VisibilityMiles, Max Wind SpeedMPH, Mean Wind SpeedMPH, Max Gust SpeedMPH,PrecipitationIn, CloudCover, Events, WindDirDegrees
2013-2-1,17,10,2,13,2,-4,86,70,58,30.39,30.28,30.12,10,9,2,22,13,26,T,4,Snow,244
2013-2-2,25,19,13,22,17,7,93,86,74,30.22,30.05,29.97,10,4,1,16,9,22,T,8,Snow,257
2013-2-3,24,17,10,18,11,3,93,77,59,30.09,30.02,29.96,10,6,2,18,10,24,T,7,Snow,265
2013-2-4,27,24,20,22,20,18,100,88,78,30.06,29.94,29.83,10,5,0,14,5,16,0.03,8,Fog-Snow,100
2013-2-5,31,24,17,28,23,16,100,89,69,30.08,29.90,29.80,10,4,1,18,8,23,T,7,Snow,239
2013-2-6,36,29,21,27,21,17,82,69,59,30.27,30.20,30.11,10,9,5,13,7,17,0.00,3,,183
2013-2-7,43,36,28,36,32,25,100,90,73,30.15,29.93,29.83,7,3,0,16,6,23,0.21,6,Fog-Rain-Snow,27
2013-2-8,34,32,29,32,27,25,96,87,72,30.39,30.18,29.90,10,7,1,23,11,32,T,8,Snow,328
2013-2-9,37,33,28,27,24,21,88,74,65,30.42,30.32,30.15,10,10,10,14,7,20,0.00,4,,158
2013-2-10,50,41,32,46,37,24,93,84,70,30.14,29.80,29.57,10,9,4,29,13,38,0.16,7,Rain,163
2013-2-11,49,40,30,36,24,21,72,66,64,30.05,29.83,29.59,10,10,10,35,22,45,0.00,8,,254
2013-2-12,31,26,21,22,21,19,92,76,69,30.13,30.06,29.97,10,10,6,21,9,26,0.00,6,,265
2013-2-13,46,33,20,32,26,18,92,78,52,29.95,29.83,29.75,10,8,4,20,7,24,0.00,1,,213
2013-2-14,43,37,31,32,28,21,89,72,55,29.99,29.82,29.71,10,10,7,25,13,33,0.00,7,,241
2013-2-15,32,28,24,27,20,10,93,73,43,30.19,30.12,30.00,10,7,1,18,7,26,T,7,Snow,330
2013-2-16,24,19,13,19,9,3,86,69,48,30.19,30.14,30.10,10,8,1,18,9,26,T,6,Snow,310
2013-2-17,30,20,10,13,6,3,76,55,34,30.25,30.19,30.09,10,10,10,13,7,17,0.00,0,,214
2013-2-18,54,40,26,44,33,13,93,72,53,30.07,29.72,29.47,10,9,5,30,17,38,0.19,5,Rain-Snow,179
2013-2-19,34,24,14,29,11,6,93,76,68,30.17,29.92,29.58,10,6,2,32,21,43,T,8,Snow,271
2013-2-20,24,17,10,18,10,4,80,72,60,30.37,30.30,30.15,10,7,2,17,9,20,T,7,Snow,307
2013-2-21,27,25,23,21,19,18,88,77,69,30.38,30.21,30.00,10,8,1,25,11,35,0.03,8,Snow,84
2013-2-22,34,29,23,32,24,19,100,86,69,30.01,29.90,29.83,10,5,0,23,13,29,0.08,8,Fog-Snow,157
2013-2-23,28,26,24,22,19,17,81,74,66,30.00,29.97,29.94,10,10,6,17,11,22,0.00,8,,242
2013-2-24,37,27,16,23,19,14,88,75,57,30.18,30.11,29.96,10,9,5,10,5,13,0.00,0,,230
2013-2-25,43,32,20,28,25,18,92,76,55,30.22,30.12,29.98,10,9,5,16,7,20,0.00,0,,76
2013-2-26,34,33,32,32,30,24,96,88,67,29.94,29.57,29.47,10,5,1,28,13,36,0.45,7,Rain-Snow,50
2013-2-27,34,34,33,34,32,32,100,95,93,29.66,29.56,29.47,6,2,1,13,7,18,0.08,8,Snow,266
2013-2-28,36,34,31,34,31,26,100,90,80,30.03,29.87,29.66,10,6,1,18,10,30,0.03,8,Snow,338